Tuesday, June 19, 2018, 3:51 PM EDT
Back to Local

KHVN, Tweed-new Haven Airport

Location: East Haven, CT, United States Lat: 41.267
Local Time: 3:51 PM EDT (19:51 GMT) Lon: -72.883
Time Zone: US/Eastern Elev: 13 ft

Show me the last for .
Show Decoded

2018-06-19 14:53 METAR KHVN 191853Z 32015G19KT 10SM FEW060 FEW250 30/11 A2978 RMK AO2 SLP083
                 T03000106 =
2018-06-19 13:53 METAR KHVN 191753Z 33012G16KT 10SM CLR 30/11 A2978 RMK AO2 SLP082 T03000111
                 10300 20256 50003 =
2018-06-19 12:53 METAR KHVN 191653Z 33011G18KT 10SM CLR 29/14 A2978 RMK AO2 SLP084 T02890139 =
2018-06-19 11:53 METAR KHVN 191553Z 34011G20KT 10SM CLR 28/14 A2978 RMK AO2 SLP084 T02830139 =
2018-06-19 10:53 METAR KHVN 191453Z 35010G18KT 10SM CLR 28/17 A2977 RMK AO2 SLP079 T02780172
                 50007 =
2018-06-19 09:53 METAR KHVN 191353Z 33009KT 10SM FEW030 27/19 A2977 RMK AO2 SLP080 T02720194 $ =
2018-06-19 08:53 METAR KHVN 191253Z 34007G15KT 10SM FEW026 FEW043 26/21 A2976 RMK AO2 SLP078
                 T02610206 $ =
2018-06-19 07:53 METAR KHVN 191153Z 32006KT 10SM SCT022 26/22 A2975 RMK AO2 SLP073 60003 70014
                 T02560222 10256 20222 53017 $ =
2018-06-19 06:53 METAR KHVN 191053Z 34006KT 10SM CLR 25/23 A2973 RMK AO2 SLP066 T02500228 $ =
2018-06-19 05:53 METAR KHVN 190953Z 29003KT 8SM CLR 23/22 A2971 RMK AO2 SLP059 T02330222 $ =
2018-06-19 04:53 METAR KHVN 190853Z AUTO 00000KT 6SM BR SCT046 BKN080 BKN110 22/21 A2970 RMK AO2
                 SLP056 60003 T02220211 55003 $ =
2018-06-19 03:53 METAR KHVN 190753Z AUTO VRB04KT 10SM FEW045 FEW050 BKN070 24/22 A2969 RMK AO2
                 RAE00B22E32 SLP052 P0000 T02390222 $ =
2018-06-19 02:53 METAR KHVN 190653Z AUTO 23004KT 7SM -RA SCT050 BKN065 OVC100 23/22 A2970 RMK AO2
                 RAB13 SLP057 P0003 T02330217 $ =
2018-06-19 01:53 METAR KHVN 190553Z AUTO 20004KT 9SM FEW110 23/22 A2970 RMK AO2 SLP058 60011
                 T02330217 10244 20211 56026 $ =
2018-06-19 00:53 METAR KHVN 190453Z AUTO 23006KT 10SM FEW060 FEW100 24/22 A2972 RMK AO2 SLP064
                 T02440222 402830161 $ =
2018-06-18 23:53 METAR KHVN 190353Z AUTO 21005KT 10SM FEW095 BKN110 22/19 A2975 RMK AO2 SLP073
                 T02170189 $ =
2018-06-18 22:53 METAR KHVN 190253Z AUTO 20005KT 10SM CLR 23/18 A2978 RMK AO2 LTG DSNT E SLP085
                 60011 T02280183 58005 $ =
2018-06-18 21:53 METAR KHVN 190153Z 22005KT 10SM SCT070 22/20 A2981 RMK AO2 WSHFT 0102 LTG DSNT
                 SE RAE25 SLP093 P0007 T02170200 $ =
2018-06-18 21:16 METAR KHVN 190116Z 18011KT 5SM -RA SCT050 BKN070 BKN100 23/21 A2977 RMK AO2
                 WSHFT 0102 P0007 T02330206 $ =
2018-06-18 20:53 METAR KHVN 190053Z 25009G19KT 220V290 3SM VCTS RA FEW050 BKN090 OVC110 23/21
                 A2979 RMK AO2 LTG DSNT SW RAB33 TSB34E49 SLP086 P0004 T02330206 $ =
2018-06-18 20:51 METAR KHVN 190051Z VRB06G19KT 4SM RA FEW050 SCT070 BKN100 23/21 A2978 RMK AO2
                 LTG DSNT SW-N RAB33 TSB34E49 PRESFR P0003 $ =
2018-06-18 20:40 METAR KHVN 190040Z 24011G19KT 6SM -TSRA BKN040 23/20 A2980 RMK AO2 LTG DSNT N
                 AND W RAB33 TSB34 P0001 T02330200 $ =
2018-06-18 20:29 METAR KHVN 190029Z 23009G16KT 10SM VCTS BKN040 23/18 A2981 RMK AO2 LTG DSNT W-N
                 T02330178 =
2018-06-18 19:53 METAR KHVN 182353Z 24005KT 10SM CLR 24/18 A2980 RMK AO2 LTG DSNT W AND NW SLP090
                 T02390178 10283 20239 56017 =
2018-06-18 18:53 METAR KHVN 182253Z 22006KT 10SM CLR 24/18 A2980 RMK AO2 SLP091 T02390178 =
2018-06-18 17:53 METAR KHVN 182153Z 25005KT 10SM CLR 24/18 A2981 RMK AO2 SLP094 T02440183 =
2018-06-18 16:53 METAR KHVN 182053Z VRB05KT 10SM CLR 26/19 A2985 RMK AO2 SLP107 T02560189 56022 =
2018-06-18 15:53 METAR KHVN 181953Z 22009KT 10SM CLR 26/19 A2986 RMK AO2 SLP111 T02560189 =

Support USWX by starting your Amazon purchase here.